createdAt,value
2022-10-05T00:00:14.106Z,7.69
2022-10-05T00:03:15.713Z,7.66
2022-10-05T00:05:57.813Z,7.63
2022-10-05T00:08:39.505Z,7.58
2022-10-05T00:11:21.196Z,7.57
2022-10-05T00:14:14.765Z,7.57
2022-10-05T00:16:57.672Z,7.57
2022-10-05T00:19:39.785Z,7.57
2022-10-05T00:22:24.753Z,7.57
2022-10-05T00:25:14.942Z,7.58
2022-10-05T00:27:59.426Z,7.59
2022-10-05T00:30:41.090Z,7.58
2022-10-05T00:33:23.088Z,7.58
2022-10-05T00:36:07.135Z,7.60
2022-10-05T00:38:49.542Z,7.60
2022-10-05T00:41:56.321Z,7.61
2022-10-05T00:45:05.020Z,7.64
2022-10-05T00:48:04.265Z,7.69
2022-10-05T00:51:07.851Z,7.75
2022-10-05T00:54:02.240Z,7.82
2022-10-05T00:56:56.015Z,7.88
2022-10-05T01:00:08.943Z,7.93
2022-10-05T01:03:03.735Z,7.97
2022-10-05T01:06:08.265Z,7.99
2022-10-05T01:09:07.874Z,8.01
2022-10-05T01:11:58.111Z,8.04
2022-10-05T01:14:55.967Z,8.07
2022-10-05T01:17:44.972Z,8.11
2022-10-05T01:20:34.061Z,8.14
2022-10-05T01:23:43.503Z,8.16
2022-10-05T01:26:45.335Z,8.19
2022-10-05T01:29:52.964Z,8.22
2022-10-05T01:32:42.747Z,8.25
2022-10-05T01:35:28.643Z,8.28
2022-10-05T01:38:47.805Z,8.32
2022-10-05T01:41:57.655Z,8.35
2022-10-05T01:45:02.284Z,8.38
2022-10-05T01:47:45.714Z,8.38
2022-10-05T01:50:47.683Z,8.40
2022-10-05T01:53:41.660Z,8.41
2022-10-05T01:56:46.835Z,8.38
2022-10-05T01:59:53.887Z,8.35
2022-10-05T02:02:40.060Z,8.32
2022-10-05T02:05:26.799Z,8.29
2022-10-05T02:08:16.780Z,8.26
2022-10-05T02:11:07.599Z,8.25
2022-10-05T02:13:56.236Z,8.26
2022-10-05T02:16:44.160Z,8.29
2022-10-05T02:19:40.919Z,8.34
2022-10-05T02:22:44.028Z,8.39
2022-10-05T02:25:31.436Z,8.41
2022-10-05T02:28:37.967Z,8.40
2022-10-05T02:31:25.177Z,8.38
2022-10-05T02:34:40.099Z,8.38
2022-10-05T02:37:54.456Z,8.37
2022-10-05T02:41:01.644Z,8.39
2022-10-05T02:44:01.052Z,8.40
2022-10-05T02:46:56.179Z,8.43
2022-10-05T02:49:47.984Z,8.49
2022-10-05T02:52:39.626Z,8.55
2022-10-05T02:55:47.503Z,8.59
2022-10-05T02:58:39.241Z,8.62
2022-10-05T03:01:41.522Z,8.65
2022-10-05T03:04:37.747Z,8.66
2022-10-05T03:07:29.778Z,8.65
2022-10-05T03:10:21.712Z,8.65
2022-10-05T03:13:21.633Z,8.63
2022-10-05T03:16:25.405Z,8.62
2022-10-05T03:19:33.864Z,8.60
2022-10-05T03:22:41.556Z,8.60
2022-10-05T03:25:47.003Z,8.61
2022-10-05T03:28:45.079Z,8.62
2022-10-05T03:31:38.840Z,8.63
2022-10-05T03:34:44.813Z,8.63
2022-10-05T03:37:53.646Z,8.62
2022-10-05T03:40:47.517Z,8.61
2022-10-05T03:44:00.133Z,8.60
2022-10-05T03:47:07.935Z,8.58
2022-10-05T03:50:14.816Z,8.56
2022-10-05T03:53:03.863Z,8.54
2022-10-05T03:55:53.765Z,8.53
2022-10-05T03:58:46.309Z,8.52
2022-10-05T04:02:03.329Z,8.49
2022-10-05T04:05:00.281Z,8.42
2022-10-05T04:08:11.972Z,8.35
2022-10-05T04:11:02.161Z,8.25
2022-10-05T04:14:09.759Z,8.18
2022-10-05T04:17:11.931Z,8.14
2022-10-05T04:20:01.709Z,8.14
2022-10-05T04:23:07.981Z,8.15
2022-10-05T04:25:59.531Z,8.15
2022-10-05T04:29:07.815Z,8.16
2022-10-05T04:32:16.046Z,8.19
2022-10-05T04:35:29.155Z,8.19
2022-10-05T04:38:32.250Z,8.14
2022-10-05T04:41:31.861Z,8.10
2022-10-05T04:44:35.876Z,8.05
2022-10-05T04:47:35.588Z,8.02
2022-10-05T04:50:41.854Z,8.03
2022-10-05T04:53:31.914Z,8.05
2022-10-05T04:56:45.232Z,8.05
2022-10-05T04:59:30.242Z,8.07
2022-10-05T05:02:31.859Z,8.09
2022-10-05T05:05:58.762Z,8.10
2022-10-05T05:09:22.738Z,8.13
2022-10-05T05:12:25.831Z,8.15
2022-10-05T05:15:32.399Z,8.33
2022-10-05T05:18:34.880Z,8.55
2022-10-05T05:21:25.662Z,8.66
2022-10-05T05:24:26.728Z,8.65
2022-10-05T05:27:20.813Z,8.64
2022-10-05T05:30:15.064Z,8.63
2022-10-05T05:33:19.027Z,8.64
2022-10-05T05:36:39.919Z,8.65
2022-10-05T05:40:03.287Z,8.65
2022-10-05T05:43:02.915Z,8.66
2022-10-05T05:45:54.418Z,8.66
2022-10-05T05:48:40.310Z,8.67
2022-10-05T05:51:33.263Z,8.68
2022-10-05T05:54:28.163Z,8.71
2022-10-05T05:57:20.095Z,8.74
2022-10-05T06:00:16.534Z,8.77
2022-10-05T06:03:21.280Z,8.81
2022-10-05T06:06:10.950Z,8.86
2022-10-05T06:09:03.593Z,8.94
2022-10-05T06:12:06.298Z,9.03
2022-10-05T06:14:51.954Z,9.14
2022-10-05T06:17:40.704Z,9.24
2022-10-05T06:20:42.782Z,9.35
2022-10-05T06:23:41.368Z,9.46
2022-10-05T06:26:42.210Z,9.56
2022-10-05T06:29:31.073Z,9.65
2022-10-05T06:32:33.755Z,9.72
2022-10-05T06:35:53.662Z,9.81
2022-10-05T06:38:52.125Z,9.87
2022-10-05T06:41:45.822Z,9.93
2022-10-05T06:44:59.239Z,10.00
2022-10-05T06:48:05.672Z,10.09
2022-10-05T06:51:32.703Z,10.18
2022-10-05T06:54:57.397Z,10.26
2022-10-05T06:57:54.123Z,10.33
2022-10-05T07:00:51.003Z,10.40
2022-10-05T07:04:01.202Z,10.47
2022-10-05T07:06:48.163Z,10.59
2022-10-05T07:09:41.377Z,10.83
2022-10-05T07:12:56.963Z,11.13
2022-10-05T07:15:45.002Z,11.50
2022-10-05T07:18:48.301Z,11.79
2022-10-05T07:21:45.806Z,12.13
2022-10-05T07:24:34.553Z,12.45
2022-10-05T07:27:21.230Z,12.71
2022-10-05T07:30:14.288Z,12.88
2022-10-05T07:33:09.594Z,12.99
2022-10-05T07:36:22.176Z,13.06
2022-10-05T07:39:55.380Z,13.09
2022-10-05T07:42:51.793Z,13.14
2022-10-05T07:45:56.127Z,13.20
2022-10-05T07:48:38.060Z,13.21
2022-10-05T07:51:36.239Z,13.23
2022-10-05T07:54:27.557Z,13.25
2022-10-05T07:57:44.693Z,13.24
2022-10-05T08:00:43.366Z,13.22
2022-10-05T08:03:49.896Z,13.19
2022-10-05T08:06:37.983Z,13.17
2022-10-05T08:09:54.194Z,13.22
2022-10-05T08:12:59.118Z,13.39
2022-10-05T08:15:46.063Z,13.65
2022-10-05T08:18:59.464Z,13.87
2022-10-05T08:22:05.323Z,14.06
2022-10-05T08:24:59.506Z,14.15
2022-10-05T08:27:53.551Z,14.25
2022-10-05T08:30:52.124Z,14.45
2022-10-05T08:34:03.941Z,14.69
2022-10-05T08:37:07.139Z,14.99
2022-10-05T08:40:00.625Z,15.23
2022-10-05T08:43:00.203Z,15.38
2022-10-05T08:45:50.564Z,15.44
2022-10-05T08:49:10.012Z,15.45
2022-10-05T08:52:11.263Z,15.49
2022-10-05T08:55:04.833Z,15.55
2022-10-05T08:58:04.866Z,15.74
2022-10-05T09:01:14.827Z,15.99
2022-10-05T09:04:25.477Z,16.25
2022-10-05T09:07:14.830Z,16.51
2022-10-05T09:10:33.404Z,16.76
2022-10-05T09:13:53.497Z,16.98
2022-10-05T09:17:06.213Z,17.19
2022-10-05T09:19:59.578Z,17.30
2022-10-05T09:23:12.736Z,17.41
2022-10-05T09:26:04.759Z,17.54
2022-10-05T09:28:58.306Z,17.55
2022-10-05T09:31:46.313Z,17.58
2022-10-05T09:34:47.907Z,17.64
2022-10-05T09:37:50.280Z,17.68
2022-10-05T09:41:01.564Z,17.66
2022-10-05T09:44:15.328Z,17.58
2022-10-05T09:47:36.936Z,17.59
2022-10-05T09:50:41.869Z,17.66
2022-10-05T09:53:49.980Z,17.73
2022-10-05T09:57:04.291Z,17.86
2022-10-05T10:00:21.766Z,17.94
2022-10-05T10:03:25.305Z,17.89
2022-10-05T10:06:14.355Z,17.75
2022-10-05T10:09:22.852Z,17.59
2022-10-05T10:12:33.317Z,17.47
2022-10-05T10:15:57.845Z,17.46
2022-10-05T10:19:20.056Z,17.48
2022-10-05T10:22:30.519Z,17.49
2022-10-05T10:25:37.197Z,17.51
2022-10-05T10:28:47.663Z,17.60
2022-10-05T10:31:45.904Z,17.57
2022-10-05T10:34:44.937Z,17.50
2022-10-05T10:37:42.570Z,17.55
2022-10-05T10:40:42.624Z,17.76
2022-10-05T10:43:39.368Z,17.99
2022-10-05T10:46:46.513Z,18.14
2022-10-05T10:49:58.568Z,18.13
2022-10-05T10:53:11.380Z,18.04
2022-10-05T10:56:26.761Z,17.96
2022-10-05T10:59:35.483Z,17.92
2022-10-05T11:02:30.127Z,17.93
2022-10-05T11:05:38.087Z,17.88
2022-10-05T11:08:34.932Z,17.85
2022-10-05T11:11:22.766Z,17.97
2022-10-05T11:14:13.674Z,18.03
2022-10-05T11:17:29.573Z,18.04
2022-10-05T11:20:23.251Z,18.03
2022-10-05T11:23:39.237Z,18.03
2022-10-05T11:26:58.096Z,17.98
2022-10-05T11:30:14.911Z,17.89
2022-10-05T11:33:29.476Z,17.85
2022-10-05T11:36:30.108Z,17.82
2022-10-05T11:39:30.440Z,17.78
2022-10-05T11:42:29.125Z,17.76
2022-10-05T11:45:33.444Z,17.73
2022-10-05T11:48:33.364Z,17.72
2022-10-05T11:51:35.540Z,17.69
2022-10-05T11:54:52.107Z,17.64
2022-10-05T11:57:43.218Z,17.58
2022-10-05T12:00:34.675Z,17.54
2022-10-05T12:03:36.116Z,17.57
2022-10-05T12:06:47.540Z,17.62
2022-10-05T12:10:17.630Z,17.67
2022-10-05T12:13:30.463Z,17.70
2022-10-05T12:16:23.358Z,17.71
2022-10-05T12:19:16.679Z,17.75
2022-10-05T12:22:15.582Z,17.78
2022-10-05T12:25:14.777Z,17.81
2022-10-05T12:28:08.293Z,17.81
2022-10-05T12:31:25.486Z,17.87
2022-10-05T12:34:16.682Z,17.97
2022-10-05T12:37:28.785Z,18.06
2022-10-05T12:40:34.131Z,18.06
2022-10-05T12:43:32.512Z,18.04
2022-10-05T12:46:26.286Z,18.00
2022-10-05T12:49:32.759Z,18.03
2022-10-05T12:52:32.780Z,18.06
2022-10-05T12:55:35.258Z,18.09
2022-10-05T12:58:22.889Z,18.10
2022-10-05T13:01:36.266Z,18.13
2022-10-05T13:04:40.542Z,18.14
2022-10-05T13:07:38.720Z,18.09
2022-10-05T13:10:35.692Z,18.00
2022-10-05T13:13:34.461Z,17.92
2022-10-05T13:16:24.598Z,17.89
2022-10-05T13:19:19.515Z,17.82
2022-10-05T13:22:06.405Z,17.79
2022-10-05T13:25:00.528Z,17.75
2022-10-05T13:28:07.798Z,17.73
2022-10-05T13:30:57.617Z,17.69
2022-10-05T13:33:58.662Z,17.67
2022-10-05T13:37:17.501Z,17.64
2022-10-05T13:40:23.281Z,17.60
2022-10-05T13:43:24.190Z,17.59
2022-10-05T13:46:18.204Z,17.59
2022-10-05T13:49:32.044Z,17.57
2022-10-05T13:52:30.734Z,17.56
2022-10-05T13:55:22.870Z,17.57
2022-10-05T13:58:33.337Z,17.59
2022-10-05T14:01:23.731Z,17.63
2022-10-05T14:04:09.797Z,17.65
2022-10-05T14:06:52.849Z,17.64
2022-10-05T14:09:35.463Z,17.60
2022-10-05T14:12:22.431Z,17.55
2022-10-05T14:15:18.913Z,17.50
2022-10-05T14:18:17.910Z,17.46
2022-10-05T14:21:08.508Z,17.43
2022-10-05T14:23:51.838Z,17.41
2022-10-05T14:26:36.403Z,17.40
2022-10-05T14:29:23.718Z,17.40
2022-10-05T14:32:14.959Z,17.39
2022-10-05T14:35:05.330Z,17.38
2022-10-05T14:37:50.743Z,17.37
2022-10-05T14:40:37.413Z,17.36
2022-10-05T14:43:20.849Z,17.34
2022-10-05T14:46:25.003Z,17.34
2022-10-05T14:49:23.241Z,17.33
2022-10-05T14:52:33.196Z,17.32
2022-10-05T14:55:30.567Z,17.31
2022-10-05T14:58:27.501Z,17.30
2022-10-05T15:01:24.277Z,17.29
2022-10-05T15:04:20.816Z,17.28
2022-10-05T15:07:27.597Z,17.26
2022-10-05T15:10:30.554Z,17.25
2022-10-05T15:13:19.734Z,17.24
2022-10-05T15:16:25.043Z,17.22
2022-10-05T15:19:16.901Z,17.21
2022-10-05T15:22:11.077Z,17.19
2022-10-05T15:25:17.140Z,17.18
2022-10-05T15:28:24.279Z,17.17
2022-10-05T15:31:31.089Z,17.16
2022-10-05T15:34:27.658Z,17.16
2022-10-05T15:37:21.027Z,17.15
2022-10-05T15:40:09.372Z,17.12
2022-10-05T15:43:02.462Z,17.09
2022-10-05T15:46:17.354Z,17.05
2022-10-05T15:49:09.281Z,17.01
2022-10-05T15:52:29.322Z,16.98
2022-10-05T15:55:39.310Z,16.98
2022-10-05T15:58:42.688Z,16.99
2022-10-05T16:01:31.188Z,17.01
2022-10-05T16:05:04.818Z,17.02
2022-10-05T16:08:12.318Z,17.01
2022-10-05T16:10:54.333Z,16.95
2022-10-05T16:13:47.168Z,16.88
2022-10-05T16:16:45.379Z,16.81
2022-10-05T16:19:48.949Z,16.75
2022-10-05T16:23:21.872Z,16.67
2022-10-05T16:26:10.339Z,16.55
2022-10-05T16:29:12.923Z,16.45
2022-10-05T16:32:06.337Z,16.34
2022-10-05T16:34:56.528Z,16.17
2022-10-05T16:38:15.405Z,15.98
2022-10-05T16:41:08.344Z,15.82
2022-10-05T16:44:24.442Z,15.68
2022-10-05T16:47:33.785Z,15.53
2022-10-05T16:50:41.685Z,15.41
2022-10-05T16:53:40.124Z,15.20
2022-10-05T16:56:28.006Z,14.99
2022-10-05T16:59:38.062Z,14.82
2022-10-05T17:02:42.040Z,14.64
2022-10-05T17:05:45.189Z,14.52
2022-10-05T17:08:47.416Z,14.41
2022-10-05T17:11:53.915Z,14.30
2022-10-05T17:15:17.487Z,14.21
2022-10-05T17:18:02.553Z,14.18
2022-10-05T17:20:54.897Z,14.21
2022-10-05T17:23:54.702Z,14.21
2022-10-05T17:26:46.356Z,14.18
2022-10-05T17:30:13.596Z,14.16
2022-10-05T17:33:18.943Z,14.17
2022-10-05T17:36:05.035Z,14.18
2022-10-05T17:38:51.673Z,14.20
2022-10-05T17:41:33.640Z,14.20
2022-10-05T17:44:19.613Z,14.20
2022-10-05T17:47:04.686Z,14.19
2022-10-05T17:50:17.020Z,14.16
2022-10-05T17:53:40.583Z,14.14
2022-10-05T17:56:24.281Z,14.11
2022-10-05T17:59:09.906Z,14.08
2022-10-05T18:02:41.094Z,14.04
2022-10-05T18:05:28.487Z,13.96
2022-10-05T18:08:13.963Z,13.90
2022-10-05T18:11:37.141Z,13.85
2022-10-05T18:14:25.895Z,13.80
2022-10-05T18:17:13.028Z,13.78
2022-10-05T18:20:15.682Z,13.74
2022-10-05T18:23:03.699Z,13.71
2022-10-05T18:26:08.046Z,13.60
2022-10-05T18:29:15.228Z,13.43
2022-10-05T18:32:07.629Z,13.24
2022-10-05T18:35:01.951Z,13.11
2022-10-05T18:38:06.373Z,13.00
2022-10-05T18:41:03.446Z,12.91
2022-10-05T18:44:04.281Z,12.85
2022-10-05T18:47:34.882Z,12.81
2022-10-05T18:50:35.531Z,12.73
2022-10-05T18:53:41.917Z,12.65
2022-10-05T18:56:49.721Z,12.57
2022-10-05T18:59:44.622Z,12.54
2022-10-05T19:02:43.944Z,12.55
2022-10-05T19:05:48.070Z,12.57
2022-10-05T19:09:01.602Z,12.60
2022-10-05T19:12:05.789Z,12.62
2022-10-05T19:14:54.691Z,12.66
2022-10-05T19:18:06.488Z,12.67
2022-10-05T19:21:12.409Z,12.67
2022-10-05T19:24:28.308Z,12.66
2022-10-05T19:27:56.343Z,12.65
2022-10-05T19:31:02.524Z,12.63
2022-10-05T19:34:23.532Z,12.61
2022-10-05T19:37:16.133Z,12.57
2022-10-05T19:40:11.835Z,12.53
2022-10-05T19:43:00.974Z,12.48
2022-10-05T19:45:55.544Z,12.42
2022-10-05T19:48:50.835Z,12.30
2022-10-05T19:51:47.126Z,12.14
2022-10-05T19:54:30.561Z,11.93
2022-10-05T19:57:18.855Z,11.78
2022-10-05T20:00:00.701Z,11.59
2022-10-05T20:02:42.426Z,11.43
2022-10-05T20:05:24.390Z,11.30
2022-10-05T20:08:06.811Z,11.20
2022-10-05T20:11:07.852Z,11.12
2022-10-05T20:13:52.401Z,11.03
2022-10-05T20:16:54.066Z,10.97
2022-10-05T20:19:57.571Z,10.92
2022-10-05T20:22:46.730Z,10.84
2022-10-05T20:25:30.266Z,10.79
2022-10-05T20:28:11.982Z,10.76
2022-10-05T20:30:55.484Z,10.74
2022-10-05T20:33:40.457Z,10.69
2022-10-05T20:36:22.492Z,10.65
2022-10-05T20:39:05.435Z,10.61
2022-10-05T20:41:48.189Z,10.58
2022-10-05T20:44:31.054Z,10.55
2022-10-05T20:47:16.774Z,10.54
2022-10-05T20:49:58.691Z,10.53
2022-10-05T20:52:40.688Z,10.55
2022-10-05T20:55:22.793Z,10.57
2022-10-05T20:58:04.583Z,10.60
2022-10-05T21:01:05.138Z,10.63
2022-10-05T21:03:47.120Z,10.66
2022-10-05T21:06:29.828Z,10.68
2022-10-05T21:09:15.063Z,10.70
2022-10-05T21:11:56.794Z,10.74
2022-10-05T21:14:38.793Z,10.77
2022-10-05T21:17:20.484Z,10.81
2022-10-05T21:20:02.389Z,10.84
2022-10-05T21:22:44.220Z,10.88
2022-10-05T21:25:25.966Z,10.89
2022-10-05T21:28:08.110Z,10.91
2022-10-05T21:30:49.988Z,10.91
2022-10-05T21:33:31.856Z,10.92
2022-10-05T21:36:17.169Z,10.92
2022-10-05T21:38:59.441Z,10.91
2022-10-05T21:41:41.073Z,10.86
2022-10-05T21:44:22.716Z,10.76
2022-10-05T21:47:05.636Z,10.68
2022-10-05T21:49:47.327Z,10.62
2022-10-05T21:52:29.823Z,10.57
2022-10-05T21:55:11.552Z,10.50
2022-10-05T21:57:55.850Z,10.43
2022-10-05T22:00:37.512Z,10.37
2022-10-05T22:03:20.141Z,10.30
2022-10-05T22:06:03.809Z,10.24
2022-10-05T22:08:45.837Z,10.19
2022-10-05T22:11:29.208Z,10.15
2022-10-05T22:14:11.454Z,10.09
2022-10-05T22:16:54.254Z,10.03
2022-10-05T22:19:36.066Z,9.98
2022-10-05T22:22:17.756Z,9.92
2022-10-05T22:25:00.163Z,9.88
2022-10-05T22:27:43.154Z,9.84
2022-10-05T22:30:24.773Z,9.81
2022-10-05T22:33:06.466Z,9.78
2022-10-05T22:35:48.156Z,9.76
2022-10-05T22:38:30.829Z,9.74
2022-10-05T22:41:14.598Z,9.75
2022-10-05T22:43:56.199Z,9.75
2022-10-05T22:46:37.889Z,9.72
2022-10-05T22:49:20.092Z,9.70
2022-10-05T22:52:01.682Z,9.67
2022-10-05T22:54:43.376Z,9.64
2022-10-05T22:57:25.062Z,9.62
2022-10-05T23:00:07.983Z,9.58
2022-10-05T23:02:50.737Z,9.63
2022-10-05T23:05:32.490Z,9.66
2022-10-05T23:08:14.182Z,9.70
2022-10-05T23:11:00.992Z,9.74
2022-10-05T23:13:42.682Z,9.78
2022-10-05T23:16:27.664Z,9.82
2022-10-05T23:19:09.444Z,9.86
2022-10-05T23:21:51.137Z,9.89
2022-10-05T23:24:32.928Z,9.92
2022-10-05T23:27:14.619Z,9.95
2022-10-05T23:29:56.310Z,9.97
2022-10-05T23:32:40.253Z,9.98
2022-10-05T23:35:21.841Z,9.99
2022-10-05T23:38:03.945Z,10.00
2022-10-05T23:40:47.648Z,10.02
2022-10-05T23:43:29.987Z,10.03
2022-10-05T23:46:12.872Z,10.03
2022-10-05T23:48:54.598Z,10.03
2022-10-05T23:51:36.493Z,10.04
2022-10-05T23:54:18.184Z,10.06
2022-10-05T23:56:59.875Z,10.07
2022-10-05T23:59:41.565Z,10.10
